Time,TemperatureF,DewpointF,PressureIn,WindDirection,WindDirectionDegrees,WindSpeedMPH,WindSpeedGustMPH,Humidity,HourlyPrecipIn,Conditions,Clouds,dailyrainin,SolarRadiationWatts/m^2,SoftwareType,DateUTC
2013-02-25 00:01:00,39.2,34.2,30.32,NNW,329,0.0,0.0,82,0.00,,,0.00,0.0,custom,2013-02-25 08:01:00,
2013-02-25 00:06:00,39.1,34.1,30.33,NNW,329,0.0,0.0,82,0.00,,,0.00,0.0,custom,2013-02-25 08:06:00,
2013-02-25 00:11:00,39.1,34.4,30.33,NNW,329,0.0,0.0,83,0.00,,,0.00,0.0,custom,2013-02-25 08:11:00,
2013-02-25 00:16:00,39.0,34.3,30.34,NNW,328,0.0,0.0,83,0.00,,,0.00,0.0,custom,2013-02-25 08:16:00,
2013-02-25 00:21:00,38.9,34.2,30.34,NNW,327,0.0,0.0,83,0.00,,,0.00,0.0,custom,2013-02-25 08:21:00,
2013-02-25 00:26:00,38.8,34.1,30.34,NNW,328,0.0,0.0,83,0.00,,,0.00,0.0,custom,2013-02-25 08:26:00,
2013-02-25 00:31:00,38.7,34.0,30.33,NNW,328,0.0,0.0,83,0.00,,,0.00,0.0,custom,2013-02-25 08:31:00,
2013-02-25 00:36:00,38.5,33.8,30.34,NNW,327,0.0,0.0,83,0.00,,,0.00,0.0,custom,2013-02-25 08:36:00,
2013-02-25 00:41:00,38.4,34.0,30.34,NNW,327,0.0,0.0,84,0.00,,,0.00,0.0,custom,2013-02-25 08:41:00,
2013-02-25 00:46:00,38.3,33.9,30.34,NNW,328,0.0,0.0,84,0.00,,,0.00,0.0,custom,2013-02-25 08:46:00,
2013-02-25 00:51:00,38.2,33.8,30.34,NNW,329,0.0,0.0,84,0.00,,,0.00,0.0,custom,2013-02-25 08:51:00,
2013-02-25 00:56:00,38.1,33.7,30.35,NNW,328,0.0,0.0,84,0.00,,,0.00,0.0,custom,2013-02-25 08:56:00,
2013-02-25 01:01:00,38.1,33.7,30.35,NNW,328,0.0,0.0,84,0.00,,,0.00,0.0,custom,2013-02-25 09:01:00,
2013-02-25 01:11:00,37.8,33.4,30.35,NNW,327,0.0,0.0,84,0.00,,,0.00,0.0,custom,2013-02-25 09:11:00,
2013-02-25 01:16:00,37.7,33.3,30.35,NNW,329,0.0,0.0,84,0.00,,,0.00,0.0,custom,2013-02-25 09:16:00,
2013-02-25 01:21:00,37.6,33.2,30.34,NNW,328,0.0,0.0,84,0.00,,,0.00,0.0,custom,2013-02-25 09:21:00,
2013-02-25 01:26:00,37.5,33.4,30.34,NNW,329,0.0,0.0,85,0.00,,,0.00,0.0,custom,2013-02-25 09:26:00,
2013-02-25 01:31:00,37.5,33.1,30.35,NNW,329,0.0,0.0,84,0.00,,,0.00,0.0,custom,2013-02-25 09:31:00,
2013-02-25 01:36:00,37.4,33.0,30.35,NNW,329,0.0,0.0,84,0.00,,,0.00,0.0,custom,2013-02-25 09:36:00,
2013-02-25 01:41:00,37.4,33.0,30.35,NNW,328,0.0,0.0,84,0.00,,,0.00,0.0,custom,2013-02-25 09:41:00,
2013-02-25 01:46:00,37.3,32.9,30.35,NNW,329,0.0,0.0,84,0.00,,,0.00,0.0,custom,2013-02-25 09:46:00,
2013-02-25 01:51:00,37.3,32.9,30.35,NNW,329,0.0,0.0,84,0.00,,,0.00,0.0,custom,2013-02-25 09:51:00,
2013-02-25 01:56:00,37.2,32.8,30.35,NNW,327,0.0,0.0,84,0.00,,,0.00,0.0,custom,2013-02-25 09:56:00,
2013-02-25 02:01:00,37.2,32.8,30.35,NNW,328,0.0,0.0,84,0.00,,,0.00,0.0,custom,2013-02-25 10:01:00,
2013-02-25 02:06:00,37.1,32.7,30.34,NNW,328,0.0,0.0,84,0.00,,,0.00,0.0,custom,2013-02-25 10:06:00,
2013-02-25 02:11:00,37.0,32.6,30.34,NNW,328,0.0,0.0,84,0.00,,,0.00,0.0,custom,2013-02-25 10:11:00,
2013-02-25 02:16:00,36.8,32.4,30.34,NNW,329,0.0,0.0,84,0.00,,,0.00,0.0,custom,2013-02-25 10:16:00,
2013-02-25 02:21:00,36.7,32.3,30.34,NNW,328,0.0,0.0,84,0.00,,,0.00,0.0,custom,2013-02-25 10:21:00,
2013-02-25 02:26:00,36.6,32.5,30.34,NNW,329,0.0,0.0,85,0.00,,,0.00,0.0,custom,2013-02-25 10:26:00,
2013-02-25 02:31:00,36.4,32.3,30.34,NNW,329,0.0,0.0,85,0.00,,,0.00,0.0,custom,2013-02-25 10:31:00,
2013-02-25 02:36:00,36.3,32.2,30.34,NNW,328,0.0,0.0,85,0.00,,,0.00,0.0,custom,2013-02-25 10:36:00,
2013-02-25 02:41:00,36.2,32.4,30.34,NNW,328,0.0,0.0,86,0.00,,,0.00,0.0,custom,2013-02-25 10:41:00,
2013-02-25 02:46:00,36.2,32.4,30.34,NNW,328,0.0,0.0,86,0.00,,,0.00,0.0,custom,2013-02-25 10:46:00,
2013-02-25 02:51:00,36.2,32.4,30.34,NNW,327,0.0,0.0,86,0.00,,,0.00,0.0,custom,2013-02-25 10:51:00,
2013-02-25 02:56:00,36.1,32.6,30.34,NNW,328,0.0,0.0,87,0.00,,,0.00,0.0,custom,2013-02-25 10:56:00,
2013-02-25 03:01:00,36.1,32.3,30.34,NNW,328,0.0,0.0,86,0.00,,,0.00,0.0,custom,2013-02-25 11:01:00,
2013-02-25 03:06:00,36.1,32.6,30.34,NNW,329,0.0,0.0,87,0.00,,,0.00,0.0,custom,2013-02-25 11:06:00,
2013-02-25 03:11:00,36.0,32.5,30.34,NNW,327,0.0,0.0,87,0.00,,,0.00,0.0,custom,2013-02-25 11:11:00,
2013-02-25 03:16:00,36.0,32.5,30.34,NNW,329,0.0,0.0,87,0.00,,,0.00,0.0,custom,2013-02-25 11:16:00,
2013-02-25 03:21:00,36.0,32.5,30.34,NNW,328,0.0,0.0,87,0.00,,,0.00,0.0,custom,2013-02-25 11:21:00,
2013-02-25 03:26:00,35.9,32.4,30.34,NNW,329,0.0,0.0,87,0.00,,,0.00,0.0,custom,2013-02-25 11:26:00,
2013-02-25 03:31:00,35.8,32.3,30.34,NNW,328,0.0,0.0,87,0.00,,,0.00,0.0,custom,2013-02-25 11:31:00,
2013-02-25 03:36:00,35.7,32.2,30.34,NNW,328,0.0,0.0,87,0.00,,,0.00,0.0,custom,2013-02-25 11:36:00,
2013-02-25 03:41:00,35.6,32.1,30.34,NNW,328,0.0,0.0,87,0.00,,,0.00,0.0,custom,2013-02-25 11:41:00,
2013-02-25 03:46:00,35.5,32.0,30.34,NNW,327,0.0,0.0,87,0.00,,,0.00,0.0,custom,2013-02-25 11:46:00,
2013-02-25 03:51:00,35.3,31.8,30.34,NNW,329,0.0,0.0,87,0.00,,,0.00,0.0,custom,2013-02-25 11:51:00,
2013-02-25 03:56:00,35.3,32.1,30.34,NNW,328,0.0,0.0,88,0.00,,,0.00,0.0,custom,2013-02-25 11:56:00,
2013-02-25 04:01:00,35.4,32.2,30.35,NNW,327,0.0,0.0,88,0.00,,,0.00,0.0,custom,2013-02-25 12:01:00,
2013-02-25 04:06:00,35.5,32.3,30.35,NNW,327,0.0,0.0,88,0.00,,,0.00,0.0,custom,2013-02-25 12:06:00,
2013-02-25 04:11:00,35.5,32.3,30.35,NNW,328,0.0,0.0,88,0.00,,,0.00,0.0,custom,2013-02-25 12:11:00,
2013-02-25 04:16:00,35.5,32.3,30.35,NNW,328,0.0,0.0,88,0.00,,,0.00,0.0,custom,2013-02-25 12:16:00,
2013-02-25 04:21:00,35.5,32.3,30.35,NNW,329,0.0,0.0,88,0.00,,,0.00,0.0,custom,2013-02-25 12:21:00,
2013-02-25 04:26:00,35.4,32.2,30.35,NNW,329,0.0,0.0,88,0.00,,,0.00,0.0,custom,2013-02-25 12:26:00,
2013-02-25 04:31:00,35.4,32.2,30.35,NNW,328,0.0,0.0,88,0.00,,,0.00,0.0,custom,2013-02-25 12:31:00,
2013-02-25 04:36:00,35.3,32.1,30.34,NNW,328,0.0,0.0,88,0.00,,,0.00,0.0,custom,2013-02-25 12:36:00,
2013-02-25 04:41:00,35.2,32.0,30.34,NNW,327,0.0,0.0,88,0.00,,,0.00,0.0,custom,2013-02-25 12:41:00,
2013-02-25 04:46:00,35.3,32.1,30.34,NNW,329,0.0,0.0,88,0.00,,,0.00,0.0,custom,2013-02-25 12:46:00,
2013-02-25 04:51:00,35.3,32.1,30.34,NNW,328,0.0,0.0,88,0.00,,,0.00,0.0,custom,2013-02-25 12:51:00,
2013-02-25 05:01:00,35.3,32.1,30.35,NNW,329,0.0,0.0,88,0.00,,,0.00,0.0,custom,2013-02-25 13:01:00,
2013-02-25 05:11:00,35.1,31.9,30.34,NNW,328,0.0,0.0,88,0.00,,,0.00,0.0,custom,2013-02-25 13:11:00,
2013-02-25 05:16:00,35.2,32.0,30.34,NNW,327,0.0,0.0,88,0.00,,,0.00,0.0,custom,2013-02-25 13:16:00,
2013-02-25 05:21:00,35.2,32.0,30.34,NNW,329,0.0,0.0,88,0.00,,,0.00,0.0,custom,2013-02-25 13:21:00,
2013-02-25 05:26:00,35.1,31.9,30.34,NNW,329,0.0,0.0,88,0.00,,,0.00,0.0,custom,2013-02-25 13:26:00,
2013-02-25 05:31:00,35.0,31.8,30.34,NNW,329,0.0,0.0,88,0.00,,,0.00,0.0,custom,2013-02-25 13:31:00,
2013-02-25 05:36:00,34.9,31.7,30.34,NNW,328,0.0,0.0,88,0.00,,,0.00,0.0,custom,2013-02-25 13:36:00,
2013-02-25 05:41:00,34.8,31.6,30.34,NNW,329,0.0,0.0,88,0.00,,,0.00,0.0,custom,2013-02-25 13:41:00,
2013-02-25 05:51:00,35.0,31.8,30.34,NNW,329,0.0,0.0,88,0.00,,,0.00,0.0,custom,2013-02-25 13:51:00,
2013-02-25 05:56:00,34.9,31.7,30.35,NNW,329,0.0,0.0,88,0.00,,,0.00,0.0,custom,2013-02-25 13:56:00,
2013-02-25 06:01:00,34.8,31.6,30.34,NNW,329,0.0,0.0,88,0.00,,,0.00,0.0,custom,2013-02-25 14:01:00,
2013-02-25 06:06:00,34.8,31.6,30.34,NNW,328,0.0,0.0,88,0.00,,,0.00,0.0,custom,2013-02-25 14:06:00,
2013-02-25 06:11:00,34.8,31.6,30.35,NNW,328,0.0,0.0,88,0.00,,,0.00,0.0,custom,2013-02-25 14:11:00,
2013-02-25 06:16:00,34.9,31.7,30.35,NNW,329,0.0,0.0,88,0.00,,,0.00,0.0,custom,2013-02-25 14:16:00,
2013-02-25 06:26:00,35.0,31.8,30.35,NNW,328,0.0,0.0,88,0.00,,,0.00,0.0,custom,2013-02-25 14:26:00,
2013-02-25 06:31:00,34.9,31.7,30.35,NNW,329,0.0,0.0,88,0.00,,,0.00,0.0,custom,2013-02-25 14:31:00,
2013-02-25 06:36:00,34.9,31.7,30.34,NNW,327,0.0,0.0,88,0.00,,,0.00,0.0,custom,2013-02-25 14:36:00,
2013-02-25 06:41:00,35.1,32.2,30.34,NNW,329,0.0,0.0,89,0.00,,,0.00,0.0,custom,2013-02-25 14:41:00,
2013-02-25 06:46:00,35.1,32.2,30.35,NNW,328,0.0,0.0,89,0.00,,,0.00,5.0,custom,2013-02-25 14:46:00,
2013-02-25 06:51:00,35.1,32.2,30.35,NNW,327,0.0,0.0,89,0.00,,,0.00,7.0,custom,2013-02-25 14:51:00,
2013-02-25 06:56:00,35.1,32.2,30.35,NNW,328,0.0,0.0,89,0.00,,,0.00,11.0,custom,2013-02-25 14:56:00,
2013-02-25 07:01:00,35.2,32.3,30.35,NNW,328,0.0,0.0,89,0.00,,,0.00,14.0,custom,2013-02-25 15:01:00,
2013-02-25 07:06:00,35.2,32.3,30.36,NNW,329,0.0,0.0,89,0.00,,,0.00,18.0,custom,2013-02-25 15:06:00,
2013-02-25 07:11:00,35.2,32.3,30.36,NNW,329,0.0,0.0,89,0.00,,,0.00,21.0,custom,2013-02-25 15:11:00,
2013-02-25 07:16:00,35.3,32.1,30.36,NNW,329,0.0,0.0,88,0.00,,,0.00,25.0,custom,2013-02-25 15:16:00,
2013-02-25 07:21:00,35.5,32.3,30.37,NNW,328,0.0,0.0,88,0.00,,,0.00,30.0,custom,2013-02-25 15:21:00,
2013-02-25 07:26:00,35.7,32.5,30.37,NNW,329,0.0,0.0,88,0.00,,,0.00,33.0,custom,2013-02-25 15:26:00,
2013-02-25 07:31:00,35.9,32.7,30.37,NNW,327,0.0,0.0,88,0.00,,,0.00,40.0,custom,2013-02-25 15:31:00,
2013-02-25 07:36:00,36.3,33.1,30.37,NNW,328,0.0,0.0,88,0.00,,,0.00,37.0,custom,2013-02-25 15:36:00,
2013-02-25 07:41:00,36.6,33.4,30.37,NNW,328,0.0,0.0,88,0.00,,,0.00,65.0,custom,2013-02-25 15:41:00,
2013-02-25 07:46:00,37.0,33.8,30.37,NNW,329,0.0,0.0,88,0.00,,,0.00,46.0,custom,2013-02-25 15:46:00,
2013-02-25 07:51:00,37.4,34.2,30.37,NNW,329,0.0,0.0,88,0.00,,,0.00,104.0,custom,2013-02-25 15:51:00,
2013-02-25 07:56:00,37.8,34.3,30.37,NNW,328,0.0,0.0,87,0.00,,,0.00,86.0,custom,2013-02-25 15:56:00,
2013-02-25 08:01:00,38.4,34.9,30.37,NNW,327,0.0,0.0,87,0.00,,,0.00,128.0,custom,2013-02-25 16:01:00,
2013-02-25 08:06:00,39.3,35.8,30.37,NNW,327,0.0,0.0,87,0.00,,,0.00,88.0,custom,2013-02-25 16:06:00,
2013-02-25 08:11:00,40.2,36.9,30.37,NNW,328,0.0,0.0,88,0.00,,,0.00,84.0,custom,2013-02-25 16:11:00,
2013-02-25 08:16:00,40.9,37.6,30.37,NNW,328,0.0,0.0,88,0.00,,,0.00,86.0,custom,2013-02-25 16:16:00,
2013-02-25 08:21:00,41.8,37.9,30.37,SSW,209,0.0,1.0,86,0.00,,,0.00,111.0,custom,2013-02-25 16:21:00,
2013-02-25 08:26:00,42.9,38.1,30.37,SSW,209,0.0,0.0,83,0.00,,,0.00,160.0,custom,2013-02-25 16:26:00,
2013-02-25 08:31:00,43.9,38.1,30.37,SSW,209,0.0,0.0,80,0.00,,,0.00,62.0,custom,2013-02-25 16:31:00,
2013-02-25 08:36:00,44.8,38.4,30.36,SSW,209,0.0,0.0,78,0.00,,,0.00,120.0,custom,2013-02-25 16:36:00,
2013-02-25 08:41:00,45.6,38.5,30.36,SSW,209,0.0,1.0,76,0.00,,,0.00,146.0,custom,2013-02-25 16:41:00,
2013-02-25 08:46:00,46.3,39.2,30.36,SSW,209,0.0,1.0,76,0.00,,,0.00,116.0,custom,2013-02-25 16:46:00,
2013-02-25 08:51:00,47.1,39.6,30.36,SSW,209,0.0,1.0,75,0.00,,,0.00,137.0,custom,2013-02-25 16:51:00,
2013-02-25 08:56:00,47.9,39.7,30.36,ENE,76,1.0,0.0,73,0.00,,,0.00,155.0,custom,2013-02-25 16:56:00,
2013-02-25 09:01:00,48.4,39.8,30.35,ENE,76,0.0,0.0,72,0.00,,,0.00,202.0,custom,2013-02-25 17:01:00,
2013-02-25 09:06:00,48.9,39.6,30.35,ENE,74,0.0,1.0,70,0.00,,,0.00,209.0,custom,2013-02-25 17:06:00,
2013-02-25 09:11:00,49.3,39.6,30.35,ESE,103,0.0,0.0,69,0.00,,,0.00,130.0,custom,2013-02-25 17:11:00,
2013-02-25 09:16:00,49.8,40.0,30.35,North,350,1.0,2.0,69,0.00,,,0.00,156.0,custom,2013-02-25 17:16:00,
2013-02-25 09:21:00,50.3,40.1,30.35,ENE,74,1.0,1.0,68,0.00,,,0.00,97.0,custom,2013-02-25 17:21:00,
2013-02-25 09:26:00,50.4,40.2,30.35,East,80,1.0,0.0,68,0.00,,,0.00,67.0,custom,2013-02-25 17:26:00,
2013-02-25 09:31:00,50.7,40.5,30.35,East,98,0.0,2.0,68,0.00,,,0.00,202.0,custom,2013-02-25 17:31:00,
2013-02-25 09:36:00,51.2,40.6,30.35,North,5,0.0,0.0,67,0.00,,,0.00,227.0,custom,2013-02-25 17:36:00,
2013-02-25 09:41:00,51.7,40.7,30.35,North,360,0.0,0.0,66,0.00,,,0.00,304.0,custom,2013-02-25 17:41:00,
2013-02-25 09:46:00,52.1,40.7,30.35,North,360,1.0,0.0,65,0.00,,,0.00,489.0,custom,2013-02-25 17:46:00,
2013-02-25 09:51:00,52.4,41.0,30.35,North,5,1.0,1.0,65,0.00,,,0.00,429.0,custom,2013-02-25 17:51:00,
2013-02-25 09:56:00,52.8,41.4,30.34,North,355,0.0,0.0,65,0.00,,,0.00,352.0,custom,2013-02-25 17:56:00,
2013-02-25 10:01:00,53.3,41.0,30.34,South,169,0.0,0.0,63,0.00,,,0.00,531.0,custom,2013-02-25 18:01:00,
2013-02-25 10:06:00,53.9,41.2,30.34,South,170,0.0,0.0,62,0.00,,,0.00,540.0,custom,2013-02-25 18:06:00,
2013-02-25 10:11:00,54.5,41.3,30.34,East,90,0.0,1.0,61,0.00,,,0.00,573.0,custom,2013-02-25 18:11:00,
2013-02-25 10:16:00,54.9,40.8,30.33,East,86,1.0,0.0,59,0.00,,,0.00,601.0,custom,2013-02-25 18:16:00,
2013-02-25 10:21:00,55.3,41.2,30.33,North,11,1.0,0.0,59,0.00,,,0.00,613.0,custom,2013-02-25 18:21:00,
2013-02-25 10:26:00,55.8,41.2,30.33,North,11,0.0,1.0,58,0.00,,,0.00,621.0,custom,2013-02-25 18:26:00,
2013-02-25 10:31:00,56.3,40.8,30.33,NNE,21,0.0,0.0,56,0.00,,,0.00,628.0,custom,2013-02-25 18:31:00,
2013-02-25 10:36:00,56.8,41.7,30.33,WNW,291,0.0,1.0,57,0.00,,,0.00,640.0,custom,2013-02-25 18:36:00,
2013-02-25 10:41:00,57.5,41.9,30.33,WNW,291,0.0,0.0,56,0.00,,,0.00,654.0,custom,2013-02-25 18:41:00,
2013-02-25 10:46:00,58.2,41.6,30.33,NNE,13,1.0,0.0,54,0.00,,,0.00,661.0,custom,2013-02-25 18:46:00,
2013-02-25 10:51:00,58.7,42.1,30.33,North,355,1.0,0.0,54,0.00,,,0.00,668.0,custom,2013-02-25 18:51:00,
2013-02-25 10:56:00,59.0,41.9,30.33,NNE,26,1.0,2.0,53,0.00,,,0.00,680.0,custom,2013-02-25 18:56:00,
2013-02-25 11:01:00,59.1,41.5,30.33,NE,49,2.0,2.0,52,0.00,,,0.00,686.0,custom,2013-02-25 19:01:00,
2013-02-25 11:06:00,59.2,41.6,30.32,NNE,17,1.0,2.0,52,0.00,,,0.00,693.0,custom,2013-02-25 19:06:00,
2013-02-25 11:11:00,59.4,41.8,30.32,NNE,17,1.0,0.0,52,0.00,,,0.00,686.0,custom,2013-02-25 19:11:00,
2013-02-25 11:16:00,60.0,42.3,30.32,NNE,17,0.0,0.0,52,0.00,,,0.00,694.0,custom,2013-02-25 19:16:00,
2013-02-25 11:21:00,60.6,41.3,30.32,North,355,0.0,0.0,49,0.00,,,0.00,703.0,custom,2013-02-25 19:21:00,
2013-02-25 11:26:00,60.9,42.6,30.32,NNE,15,0.0,3.0,51,0.00,,,0.00,691.0,custom,2013-02-25 19:26:00,
2013-02-25 11:31:00,61.0,41.2,30.32,NNE,13,1.0,1.0,48,0.00,,,0.00,640.0,custom,2013-02-25 19:31:00,
2013-02-25 11:36:00,61.1,42.8,30.31,NNE,15,2.0,2.0,51,0.00,,,0.00,638.0,custom,2013-02-25 19:36:00,
2013-02-25 11:41:00,61.3,42.0,30.31,NNW,345,1.0,2.0,49,0.00,,,0.00,735.0,custom,2013-02-25 19:41:00,
2013-02-25 11:46:00,61.5,42.7,30.31,NNE,13,1.0,1.0,50,0.00,,,0.00,577.0,custom,2013-02-25 19:46:00,
2013-02-25 11:51:00,61.6,41.7,30.31,NNW,334,2.0,4.0,48,0.00,,,0.00,731.0,custom,2013-02-25 19:51:00,
2013-02-25 11:56:00,61.6,41.7,30.31,NW,321,2.0,2.0,48,0.00,,,0.00,724.0,custom,2013-02-25 19:56:00,
2013-02-25 12:01:00,61.6,41.2,30.31,NNW,340,1.0,1.0,47,0.00,,,0.00,731.0,custom,2013-02-25 20:01:00,
2013-02-25 12:06:00,61.6,40.6,30.31,NNW,334,1.0,1.0,46,0.00,,,0.00,731.0,custom,2013-02-25 20:06:00,
2013-02-25 12:11:00,61.8,40.8,30.30,NW,311,2.0,2.0,46,0.00,,,0.00,733.0,custom,2013-02-25 20:11:00,
2013-02-25 12:16:00,61.7,40.7,30.31,NNW,333,2.0,2.0,46,0.00,,,0.00,729.0,custom,2013-02-25 20:16:00,
2013-02-25 12:21:00,61.6,41.2,30.30,NNE,33,2.0,2.0,47,0.00,,,0.00,733.0,custom,2013-02-25 20:21:00,
2013-02-25 12:26:00,61.5,41.6,30.30,North,350,3.0,3.0,48,0.00,,,0.00,715.0,custom,2013-02-25 20:26:00,
2013-02-25 12:31:00,61.7,42.3,30.30,WNW,290,2.0,4.0,49,0.00,,,0.00,719.0,custom,2013-02-25 20:31:00,
2013-02-25 12:36:00,61.7,42.9,30.29,NNE,18,2.0,2.0,50,0.00,,,0.00,710.0,custom,2013-02-25 20:36:00,
2013-02-25 12:41:00,61.8,43.0,30.30,North,355,2.0,2.0,50,0.00,,,0.00,705.0,custom,2013-02-25 20:41:00,
2013-02-25 12:46:00,61.6,43.3,30.29,NNW,332,2.0,2.0,51,0.00,,,0.00,714.0,custom,2013-02-25 20:46:00,
2013-02-25 12:51:00,61.4,43.6,30.29,NE,34,2.0,2.0,52,0.00,,,0.00,724.0,custom,2013-02-25 20:51:00,
2013-02-25 12:56:00,61.3,44.5,30.29,NW,304,2.0,4.0,54,0.00,,,0.00,703.0,custom,2013-02-25 20:56:00,
2013-02-25 13:01:00,61.2,44.4,30.29,NNE,15,3.0,0.0,54,0.00,,,0.00,693.0,custom,2013-02-25 21:01:00,
2013-02-25 13:06:00,61.1,44.8,30.28,NW,311,2.0,2.0,55,0.00,,,0.00,703.0,custom,2013-02-25 21:06:00,
2013-02-25 13:11:00,61.2,44.4,30.29,NNW,346,1.0,1.0,54,0.00,,,0.00,682.0,custom,2013-02-25 21:11:00,
2013-02-25 13:16:00,61.4,44.1,30.28,NNW,331,2.0,3.0,53,0.00,,,0.00,679.0,custom,2013-02-25 21:16:00,
2013-02-25 13:21:00,61.4,44.6,30.28,NW,317,3.0,3.0,54,0.00,,,0.00,680.0,custom,2013-02-25 21:21:00,
2013-02-25 13:26:00,61.4,45.1,30.28,North,360,3.0,4.0,55,0.00,,,0.00,666.0,custom,2013-02-25 21:26:00,
2013-02-25 13:31:00,61.6,45.3,30.27,NNW,340,3.0,3.0,55,0.00,,,0.00,664.0,custom,2013-02-25 21:31:00,
2013-02-25 13:36:00,61.9,44.6,30.27,WNW,297,3.0,3.0,53,0.00,,,0.00,638.0,custom,2013-02-25 21:36:00,
2013-02-25 13:41:00,62.2,44.9,30.27,WNW,294,3.0,3.0,53,0.00,,,0.00,635.0,custom,2013-02-25 21:41:00,
2013-02-25 13:46:00,62.2,44.9,30.27,North,11,3.0,6.0,53,0.00,,,0.00,633.0,custom,2013-02-25 21:46:00,
2013-02-25 13:51:00,62.5,45.1,30.27,NW,325,4.0,0.0,53,0.00,,,0.00,629.0,custom,2013-02-25 21:51:00,
2013-02-25 13:56:00,62.6,45.2,30.27,NW,309,3.0,3.0,53,0.00,,,0.00,621.0,custom,2013-02-25 21:56:00,
2013-02-25 14:01:00,62.8,43.9,30.27,NW,307,2.0,3.0,50,0.00,,,0.00,603.0,custom,2013-02-25 22:01:00,
2013-02-25 14:06:00,62.9,44.0,30.26,WNW,291,3.0,3.0,50,0.00,,,0.00,591.0,custom,2013-02-25 22:06:00,
2013-02-25 14:11:00,62.9,44.0,30.26,North,355,4.0,4.0,50,0.00,,,0.00,585.0,custom,2013-02-25 22:11:00,
2013-02-25 14:16:00,63.0,44.6,30.27,NE,34,4.0,7.0,51,0.00,,,0.00,577.0,custom,2013-02-25 22:16:00,
2013-02-25 14:21:00,63.0,44.6,30.27,WNW,288,4.0,4.0,51,0.00,,,0.00,561.0,custom,2013-02-25 22:21:00,
2013-02-25 14:26:00,63.1,43.6,30.27,NNW,344,4.0,4.0,49,0.00,,,0.00,545.0,custom,2013-02-25 22:26:00,
2013-02-25 14:31:00,63.1,44.2,30.27,NNW,333,3.0,0.0,50,0.00,,,0.00,554.0,custom,2013-02-25 22:31:00,
2013-02-25 14:36:00,63.2,44.2,30.27,North,360,2.0,9.0,50,0.00,,,0.00,483.0,custom,2013-02-25 22:36:00,
2013-02-25 14:41:00,62.9,45.0,30.27,North,360,3.0,3.0,52,0.00,,,0.00,355.0,custom,2013-02-25 22:41:00,
2013-02-25 14:46:00,62.6,44.7,30.27,North,360,4.0,4.0,52,0.00,,,0.00,227.0,custom,2013-02-25 22:46:00,
2013-02-25 14:51:00,62.4,44.5,30.27,NW,311,3.0,3.0,52,0.00,,,0.00,424.0,custom,2013-02-25 22:51:00,
2013-02-25 14:56:00,62.3,43.9,30.27,WNW,292,2.0,2.0,51,0.00,,,0.00,503.0,custom,2013-02-25 22:56:00,
2013-02-25 15:01:00,62.2,43.8,30.27,North,355,2.0,3.0,51,0.00,,,0.00,77.0,custom,2013-02-25 23:01:00,
2013-02-25 15:06:00,62.3,42.9,30.27,North,5,2.0,5.0,49,0.00,,,0.00,473.0,custom,2013-02-25 23:06:00,
2013-02-25 15:11:00,62.2,43.3,30.26,North,355,3.0,5.0,50,0.00,,,0.00,454.0,custom,2013-02-25 23:11:00,
2013-02-25 15:16:00,62.1,42.7,30.26,NNW,340,2.0,0.0,49,0.00,,,0.00,311.0,custom,2013-02-25 23:16:00,
2013-02-25 15:21:00,62.0,43.1,30.26,North,355,1.0,0.0,50,0.00,,,0.00,229.0,custom,2013-02-25 23:21:00,
2013-02-25 15:26:00,61.9,43.1,30.26,NNW,345,1.0,1.0,50,0.00,,,0.00,63.0,custom,2013-02-25 23:26:00,
2013-02-25 15:31:00,61.8,44.0,30.25,WNW,290,1.0,0.0,52,0.00,,,0.00,49.0,custom,2013-02-25 23:31:00,
2013-02-25 15:36:00,61.7,43.9,30.25,North,349,2.0,0.0,52,0.00,,,0.00,142.0,custom,2013-02-25 23:36:00,
2013-02-25 15:41:00,61.7,43.4,30.25,North,355,1.0,3.0,51,0.00,,,0.00,70.0,custom,2013-02-25 23:41:00,
2013-02-25 15:46:00,61.7,43.9,30.25,WNW,295,1.0,0.0,52,0.00,,,0.00,40.0,custom,2013-02-25 23:46:00,
2013-02-25 15:51:00,61.6,43.8,30.25,NNW,344,1.0,4.0,52,0.00,,,0.00,37.0,custom,2013-02-25 23:51:00,
2013-02-25 15:56:00,61.6,43.3,30.25,North,350,1.0,3.0,51,0.00,,,0.00,40.0,custom,2013-02-25 23:56:00,
2013-02-25 16:01:00,61.6,43.8,30.25,NNW,344,2.0,6.0,52,0.00,,,0.00,139.0,custom,2013-02-26 00:01:00,
2013-02-25 16:06:00,61.6,43.8,30.25,WNW,302,2.0,0.0,52,0.00,,,0.00,121.0,custom,2013-02-26 00:06:00,
2013-02-25 16:11:00,61.6,43.8,30.25,North,349,1.0,2.0,52,0.00,,,0.00,200.0,custom,2013-02-26 00:11:00,
2013-02-25 16:16:00,61.6,43.8,30.25,NW,315,1.0,1.0,52,0.00,,,0.00,72.0,custom,2013-02-26 00:16:00,
2013-02-25 16:21:00,61.6,43.8,30.25,NNW,331,1.0,4.0,52,0.00,,,0.00,171.0,custom,2013-02-26 00:21:00,
2013-02-25 16:26:00,61.5,43.7,30.24,NNE,14,1.0,1.0,52,0.00,,,0.00,84.0,custom,2013-02-26 00:26:00,
2013-02-25 16:31:00,61.5,43.7,30.25,North,9,1.0,0.0,52,0.00,,,0.00,90.0,custom,2013-02-26 00:31:00,
2013-02-25 16:36:00,61.5,43.7,30.24,NNW,342,1.0,2.0,52,0.00,,,0.00,72.0,custom,2013-02-26 00:36:00,
2013-02-25 16:41:00,61.6,43.8,30.24,North,360,1.0,2.0,52,0.00,,,0.00,84.0,custom,2013-02-26 00:41:00,
2013-02-25 16:46:00,61.6,44.3,30.24,North,355,1.0,0.0,53,0.00,,,0.00,58.0,custom,2013-02-26 00:46:00,
2013-02-25 16:51:00,61.5,44.2,30.24,NW,309,1.0,1.0,53,0.00,,,0.00,37.0,custom,2013-02-26 00:51:00,
2013-02-25 16:56:00,61.3,44.0,30.24,North,349,1.0,0.0,53,0.00,,,0.00,26.0,custom,2013-02-26 00:56:00,
2013-02-25 17:01:00,61.0,43.7,30.24,North,360,1.0,1.0,53,0.00,,,0.00,25.0,custom,2013-02-26 01:01:00,
2013-02-25 17:06:00,60.7,44.0,30.24,NW,325,1.0,0.0,54,0.00,,,0.00,23.0,custom,2013-02-26 01:06:00,
2013-02-25 17:11:00,60.5,43.8,30.24,NW,325,1.0,0.0,54,0.00,,,0.00,21.0,custom,2013-02-26 01:11:00,
2013-02-25 17:16:00,60.3,43.6,30.24,NNW,346,0.0,0.0,54,0.00,,,0.00,19.0,custom,2013-02-26 01:16:00,
2013-02-25 17:21:00,60.1,43.9,30.24,NNW,346,0.0,0.0,55,0.00,,,0.00,19.0,custom,2013-02-26 01:21:00,
2013-02-25 17:26:00,59.9,44.2,30.24,NNW,346,0.0,0.0,56,0.00,,,0.00,18.0,custom,2013-02-26 01:26:00,
2013-02-25 17:31:00,59.6,43.9,30.24,NNW,339,0.0,0.0,56,0.00,,,0.00,16.0,custom,2013-02-26 01:31:00,
2013-02-25 17:36:00,59.2,44.4,30.24,NNW,339,0.0,0.0,58,0.00,,,0.00,14.0,custom,2013-02-26 01:36:00,
2013-02-25 17:41:00,59.0,44.7,30.24,NNW,338,0.0,0.0,59,0.00,,,0.00,11.0,custom,2013-02-26 01:41:00,
2013-02-25 17:46:00,59.0,44.7,30.24,NNW,338,0.0,1.0,59,0.00,,,0.00,9.0,custom,2013-02-26 01:46:00,
2013-02-25 17:51:00,58.6,44.8,30.24,NNW,339,0.0,0.0,60,0.00,,,0.00,7.0,custom,2013-02-26 01:51:00,
2013-02-25 17:56:00,58.2,44.4,30.24,NNE,19,0.0,0.0,60,0.00,,,0.00,5.0,custom,2013-02-26 01:56:00,
2013-02-25 18:01:00,57.8,44.0,30.24,WNW,287,0.0,0.0,60,0.00,,,0.00,0.0,custom,2013-02-26 02:01:00,
2013-02-25 18:06:00,57.4,43.6,30.24,WNW,287,0.0,0.0,60,0.00,,,0.00,0.0,custom,2013-02-26 02:06:00,
2013-02-25 18:11:00,57.0,43.7,30.24,WNW,287,0.0,0.0,61,0.00,,,0.00,0.0,custom,2013-02-26 02:11:00,
2013-02-25 18:16:00,56.6,43.3,30.24,WNW,287,0.0,0.0,61,0.00,,,0.00,0.0,custom,2013-02-26 02:16:00,
2013-02-25 18:21:00,56.2,43.4,30.24,WNW,287,0.0,0.0,62,0.00,,,0.00,0.0,custom,2013-02-26 02:21:00,
2013-02-25 18:26:00,55.8,43.0,30.24,WNW,287,0.0,0.0,62,0.00,,,0.00,0.0,custom,2013-02-26 02:26:00,
2013-02-25 18:31:00,55.4,43.0,30.24,WNW,287,0.0,0.0,63,0.00,,,0.00,0.0,custom,2013-02-26 02:31:00,
2013-02-25 18:36:00,55.0,43.0,30.25,WNW,287,0.0,0.0,64,0.00,,,0.00,0.0,custom,2013-02-26 02:36:00,
2013-02-25 18:41:00,54.6,43.1,30.25,WNW,287,0.0,0.0,65,0.00,,,0.00,0.0,custom,2013-02-26 02:41:00,
2013-02-25 18:46:00,54.2,43.1,30.25,WNW,287,0.0,0.0,66,0.00,,,0.00,0.0,custom,2013-02-26 02:46:00,
2013-02-25 18:51:00,53.8,42.7,30.25,WNW,287,0.0,0.0,66,0.00,,,0.00,0.0,custom,2013-02-26 02:51:00,
2013-02-25 18:56:00,53.4,43.1,30.25,WNW,287,0.0,0.0,68,0.00,,,0.00,0.0,custom,2013-02-26 02:56:00,
2013-02-25 19:01:00,53.0,42.7,30.25,WNW,287,0.0,0.0,68,0.00,,,0.00,0.0,custom,2013-02-26 03:01:00,
2013-02-25 19:06:00,52.6,42.7,30.26,WNW,287,0.0,0.0,69,0.00,,,0.00,0.0,custom,2013-02-26 03:06:00,
2013-02-25 19:11:00,52.2,42.7,30.26,WNW,287,0.0,0.0,70,0.00,,,0.00,0.0,custom,2013-02-26 03:11:00,
2013-02-25 19:16:00,51.8,42.7,30.26,WNW,287,0.0,0.0,71,0.00,,,0.00,0.0,custom,2013-02-26 03:16:00,
2013-02-25 19:21:00,51.5,42.4,30.26,WNW,287,0.0,0.0,71,0.00,,,0.00,0.0,custom,2013-02-26 03:21:00,
2013-02-25 19:26:00,51.2,42.5,30.26,WNW,287,0.0,0.0,72,0.00,,,0.00,0.0,custom,2013-02-26 03:26:00,
2013-02-25 19:31:00,50.9,42.6,30.26,WNW,287,0.0,0.0,73,0.00,,,0.00,0.0,custom,2013-02-26 03:31:00,
2013-02-25 19:36:00,50.6,42.6,30.26,WNW,287,0.0,0.0,74,0.00,,,0.00,0.0,custom,2013-02-26 03:36:00,
2013-02-25 19:41:00,50.4,42.4,30.26,WNW,287,0.0,0.0,74,0.00,,,0.00,0.0,custom,2013-02-26 03:41:00,
2013-02-25 19:46:00,50.1,42.1,30.26,WNW,287,0.0,0.0,74,0.00,,,0.00,0.0,custom,2013-02-26 03:46:00,
2013-02-25 19:51:00,49.8,42.2,30.27,WNW,287,0.0,0.0,75,0.00,,,0.00,0.0,custom,2013-02-26 03:51:00,
2013-02-25 19:56:00,49.4,42.2,30.27,WNW,287,0.0,0.0,76,0.00,,,0.00,0.0,custom,2013-02-26 03:56:00,
2013-02-25 20:01:00,49.2,42.0,30.27,WNW,287,0.0,0.0,76,0.00,,,0.00,0.0,custom,2013-02-26 04:01:00,
2013-02-25 20:06:00,48.8,41.9,30.27,WNW,287,0.0,0.0,77,0.00,,,0.00,0.0,custom,2013-02-26 04:06:00,
2013-02-25 20:11:00,48.5,42.0,30.27,WNW,287,0.0,0.0,78,0.00,,,0.00,0.0,custom,2013-02-26 04:11:00,
2013-02-25 20:16:00,48.2,41.7,30.27,WNW,287,0.0,0.0,78,0.00,,,0.00,0.0,custom,2013-02-26 04:16:00,
2013-02-25 20:21:00,47.9,41.7,30.27,WNW,287,0.0,0.0,79,0.00,,,0.00,0.0,custom,2013-02-26 04:21:00,
2013-02-25 20:26:00,47.6,41.4,30.27,WNW,287,0.0,0.0,79,0.00,,,0.00,0.0,custom,2013-02-26 04:26:00,
2013-02-25 20:31:00,47.3,41.4,30.27,WNW,287,0.0,0.0,80,0.00,,,0.00,0.0,custom,2013-02-26 04:31:00,
2013-02-25 20:36:00,47.1,41.3,30.27,WNW,287,0.0,0.0,80,0.00,,,0.00,0.0,custom,2013-02-26 04:36:00,
2013-02-25 20:41:00,46.9,41.1,30.27,WNW,287,0.0,0.0,80,0.00,,,0.00,0.0,custom,2013-02-26 04:41:00,
2013-02-25 20:46:00,46.6,41.1,30.27,WNW,287,0.0,0.0,81,0.00,,,0.00,0.0,custom,2013-02-26 04:46:00,
2013-02-25 20:51:00,46.4,40.9,30.27,WNW,287,0.0,0.0,81,0.00,,,0.00,0.0,custom,2013-02-26 04:51:00,
2013-02-25 20:56:00,46.1,40.6,30.27,WNW,287,0.0,0.0,81,0.00,,,0.00,0.0,custom,2013-02-26 04:56:00,
2013-02-25 21:01:00,45.9,40.7,30.27,WNW,287,0.0,0.0,82,0.00,,,0.00,0.0,custom,2013-02-26 05:01:00,
2013-02-25 21:06:00,45.7,40.5,30.27,WNW,287,0.0,0.0,82,0.00,,,0.00,0.0,custom,2013-02-26 05:06:00,
2013-02-25 21:11:00,45.4,40.2,30.28,WNW,287,0.0,0.0,82,0.00,,,0.00,0.0,custom,2013-02-26 05:11:00,
2013-02-25 21:16:00,45.2,40.3,30.28,WNW,287,0.0,0.0,83,0.00,,,0.00,0.0,custom,2013-02-26 05:16:00,
2013-02-25 21:21:00,45.0,40.2,30.28,WNW,287,0.0,0.0,83,0.00,,,0.00,0.0,custom,2013-02-26 05:21:00,
2013-02-25 21:26:00,44.8,40.0,30.28,WNW,287,0.0,0.0,83,0.00,,,0.00,0.0,custom,2013-02-26 05:26:00,
2013-02-25 21:31:00,44.6,40.1,30.28,WNW,287,0.0,0.0,84,0.00,,,0.00,0.0,custom,2013-02-26 05:31:00,
2013-02-25 21:36:00,44.4,39.9,30.28,WNW,287,0.0,0.0,84,0.00,,,0.00,0.0,custom,2013-02-26 05:36:00,
2013-02-25 21:41:00,44.2,39.7,30.28,WNW,287,0.0,0.0,84,0.00,,,0.00,0.0,custom,2013-02-26 05:41:00,
2013-02-25 21:46:00,44.0,39.5,30.28,WNW,287,0.0,0.0,84,0.00,,,0.00,0.0,custom,2013-02-26 05:46:00,
2013-02-25 21:51:00,43.7,39.2,30.28,WNW,287,0.0,0.0,84,0.00,,,0.00,0.0,custom,2013-02-26 05:51:00,
2013-02-25 21:56:00,43.6,39.4,30.29,WNW,287,0.0,0.0,85,0.00,,,0.00,0.0,custom,2013-02-26 05:56:00,
2013-02-25 22:01:00,43.4,39.2,30.28,WNW,287,0.0,0.0,85,0.00,,,0.00,0.0,custom,2013-02-26 06:01:00,
2013-02-25 22:06:00,43.3,39.1,30.28,WNW,287,0.0,0.0,85,0.00,,,0.00,0.0,custom,2013-02-26 06:06:00,
2013-02-25 22:11:00,43.1,38.9,30.28,WNW,287,0.0,0.0,85,0.00,,,0.00,0.0,custom,2013-02-26 06:11:00,
2013-02-25 22:16:00,42.9,38.7,30.29,WNW,287,0.0,0.0,85,0.00,,,0.00,0.0,custom,2013-02-26 06:16:00,
2013-02-25 22:21:00,42.7,38.5,30.29,WNW,287,0.0,0.0,85,0.00,,,0.00,0.0,custom,2013-02-26 06:21:00,
2013-02-25 22:26:00,42.5,38.3,30.29,WNW,287,0.0,0.0,85,0.00,,,0.00,0.0,custom,2013-02-26 06:26:00,
2013-02-25 22:31:00,42.4,38.5,30.29,WNW,287,0.0,0.0,86,0.00,,,0.00,0.0,custom,2013-02-26 06:31:00,
2013-02-25 22:36:00,42.2,38.3,30.29,WNW,287,0.0,0.0,86,0.00,,,0.00,0.0,custom,2013-02-26 06:36:00,
2013-02-25 22:41:00,42.1,38.2,30.29,WNW,287,0.0,0.0,86,0.00,,,0.00,0.0,custom,2013-02-26 06:41:00,
2013-02-25 22:46:00,41.9,38.0,30.29,WNW,287,0.0,0.0,86,0.00,,,0.00,0.0,custom,2013-02-26 06:46:00,
2013-02-25 22:51:00,41.7,37.8,30.29,WNW,287,0.0,0.0,86,0.00,,,0.00,0.0,custom,2013-02-26 06:51:00,
2013-02-25 22:56:00,41.5,37.6,30.29,WNW,287,0.0,0.0,86,0.00,,,0.00,0.0,custom,2013-02-26 06:56:00,
2013-02-25 23:01:00,41.4,37.8,30.29,WNW,287,0.0,0.0,87,0.00,,,0.00,0.0,custom,2013-02-26 07:01:00,
2013-02-25 23:06:00,41.3,37.4,30.28,WNW,287,0.0,0.0,86,0.00,,,0.00,0.0,custom,2013-02-26 07:06:00,
2013-02-25 23:11:00,41.1,37.2,30.28,WNW,287,0.0,0.0,86,0.00,,,0.00,0.0,custom,2013-02-26 07:11:00,
2013-02-25 23:16:00,41.0,37.4,30.28,WNW,287,0.0,0.0,87,0.00,,,0.00,0.0,custom,2013-02-26 07:16:00,
2013-02-25 23:21:00,40.8,37.2,30.28,WNW,287,0.0,0.0,87,0.00,,,0.00,0.0,custom,2013-02-26 07:21:00,
2013-02-25 23:26:00,40.6,37.0,30.28,WNW,287,0.0,0.0,87,0.00,,,0.00,0.0,custom,2013-02-26 07:26:00,
2013-02-25 23:31:00,40.5,36.9,30.28,WNW,287,0.0,0.0,87,0.00,,,0.00,0.0,custom,2013-02-26 07:31:00,
2013-02-25 23:36:00,40.4,36.8,30.28,WNW,287,0.0,0.0,87,0.00,,,0.00,0.0,custom,2013-02-26 07:36:00,
2013-02-25 23:41:00,40.4,36.8,30.28,WNW,287,0.0,0.0,87,0.00,,,0.00,0.0,custom,2013-02-26 07:41:00,
2013-02-25 23:46:00,40.4,36.8,30.28,WNW,287,0.0,0.0,87,0.00,,,0.00,0.0,custom,2013-02-26 07:46:00,
2013-02-25 23:51:00,40.4,36.8,30.28,WNW,287,0.0,0.0,87,0.00,,,0.00,0.0,custom,2013-02-26 07:51:00,
2013-02-25 23:56:00,40.3,36.7,30.28,WNW,287,0.0,0.0,87,0.00,,,0.00,0.0,custom,2013-02-26 07:56:00,